createdAt,value
2019-04-05T00:00:39.320Z,95698.48
2019-04-05T00:03:11.014Z,95690.80
2019-04-05T00:05:42.336Z,95689.08
2019-04-05T00:08:14.236Z,95675.02
2019-04-05T00:10:45.905Z,95683.56
2019-04-05T00:13:17.771Z,95672.05
2019-04-05T00:15:49.207Z,95675.88
2019-04-05T00:18:21.147Z,95677.15
2019-04-05T00:20:53.477Z,95675.89
2019-04-05T00:23:26.325Z,95684.84
2019-04-05T00:25:58.632Z,95669.92
2019-04-05T00:28:29.944Z,95682.28
2019-04-05T00:31:01.336Z,95685.27
2019-04-05T00:33:33.028Z,95685.70
2019-04-05T00:36:04.515Z,95683.14
2019-04-05T00:38:36.052Z,95686.14
2019-04-05T00:41:07.515Z,95695.09
2019-04-05T00:43:38.851Z,95712.18
2019-04-05T00:46:10.093Z,95707.91
2019-04-05T00:48:41.371Z,95710.89
2019-04-05T00:51:13.036Z,95722.39
2019-04-05T00:53:44.720Z,95724.94
2019-04-05T00:56:16.195Z,95720.67
2019-04-05T00:58:47.667Z,95723.28
2019-04-05T01:01:19.128Z,95719.00
2019-04-05T01:03:50.462Z,95724.13
2019-04-05T01:06:22.842Z,95719.00
2019-04-05T01:08:54.251Z,95724.56
2019-04-05T01:11:25.656Z,95726.70
2019-04-05T01:13:58.785Z,95727.12
2019-04-05T01:16:30.501Z,95736.84
2019-04-05T01:19:04.091Z,95735.55
2019-04-05T01:21:40.218Z,95748.37
2019-04-05T01:24:13.767Z,95736.40
2019-04-05T01:26:47.523Z,95735.98
2019-04-05T01:29:20.107Z,95735.60
2019-04-05T01:31:52.382Z,95737.75
2019-04-05T01:34:23.749Z,95736.02
2019-04-05T01:36:55.307Z,95739.42
2019-04-05T01:39:26.917Z,95734.28
2019-04-05T01:41:58.487Z,95724.44
2019-04-05T01:44:29.912Z,95730.84
2019-04-05T01:47:01.223Z,95731.28
2019-04-05T01:49:32.904Z,95727.45
2019-04-05T01:52:04.978Z,95733.05
2019-04-05T01:54:36.227Z,95735.99
2019-04-05T01:57:08.376Z,95721.47
2019-04-05T01:59:40.340Z,95722.30
2019-04-05T02:02:11.677Z,95726.14
2019-04-05T02:04:43.254Z,95733.39
2019-04-05T02:07:14.979Z,95724.88
2019-04-05T02:09:46.676Z,95724.92
2019-04-05T02:12:18.154Z,95723.18
2019-04-05T02:14:49.910Z,95729.16
2019-04-05T02:17:21.331Z,95717.25
2019-04-05T02:19:52.656Z,95724.50
2019-04-05T02:22:23.994Z,95735.14
2019-04-05T02:24:55.755Z,95742.35
2019-04-05T02:27:27.565Z,95742.34
2019-04-05T02:29:59.355Z,95741.52
2019-04-05T02:32:30.779Z,95745.82
2019-04-05T02:35:02.226Z,95742.42
2019-04-05T02:37:33.935Z,95739.87
2019-04-05T02:40:07.089Z,95737.27
2019-04-05T02:42:41.027Z,95743.23
2019-04-05T02:45:15.790Z,95735.50
2019-04-05T02:47:53.211Z,95736.00
2019-04-05T02:50:27.934Z,95731.75
2019-04-05T02:53:03.667Z,95733.92
2019-04-05T02:55:37.668Z,95740.32
2019-04-05T02:58:13.162Z,95743.70
2019-04-05T03:00:45.818Z,95751.33
2019-04-05T03:03:18.492Z,95756.81
2019-04-05T03:05:50.302Z,95760.64
2019-04-05T03:08:22.290Z,95762.36
2019-04-05T03:11:07.458Z,95750.36
2019-04-05T03:13:51.441Z,95752.49
2019-04-05T03:16:41.707Z,95752.95
2019-04-05T03:19:20.913Z,95743.58
2019-04-05T03:21:58.433Z,95743.60
2019-04-05T03:24:34.457Z,95747.94
2019-04-05T03:27:17.074Z,95753.02
2019-04-05T03:29:48.760Z,95761.94
2019-04-05T03:32:21.468Z,95760.63
2019-04-05T03:34:54.501Z,95759.34
2019-04-05T03:37:26.026Z,95763.55
2019-04-05T03:39:58.319Z,95766.56
2019-04-05T03:42:31.339Z,95770.45
2019-04-05T03:45:03.011Z,95767.47
2019-04-05T03:47:34.512Z,95773.42
2019-04-05T03:50:07.432Z,95774.27
2019-04-05T03:52:39.449Z,95769.13
2019-04-05T03:55:10.976Z,95761.49
2019-04-05T03:57:42.379Z,95757.70
2019-04-05T04:00:13.864Z,95759.27
2019-04-05T04:02:45.521Z,95760.56
2019-04-05T04:05:17.248Z,95758.92
2019-04-05T04:07:49.719Z,95755.09
2019-04-05T04:10:21.311Z,95751.67
2019-04-05T04:12:52.772Z,95756.30
2019-04-05T04:15:25.372Z,95768.31
2019-04-05T04:17:57.787Z,95760.23
2019-04-05T04:20:52.371Z,95769.14
2019-04-05T04:23:28.504Z,95769.50
2019-04-05T04:26:01.905Z,95769.02
2019-04-05T04:28:34.201Z,95770.32
2019-04-05T04:31:05.691Z,95782.59
2019-04-05T04:33:37.203Z,95780.87
2019-04-05T04:36:12.755Z,95794.48
2019-04-05T04:38:43.145Z,95790.67
2019-04-05T04:41:15.859Z,95797.06
2019-04-05T04:43:48.291Z,95792.00
2019-04-05T04:46:20.787Z,95799.28
2019-04-05T04:48:53.186Z,95794.66
2019-04-05T04:51:26.160Z,95798.05
2019-04-05T04:53:57.980Z,95802.33
2019-04-05T04:56:29.585Z,95797.14
2019-04-05T04:59:01.009Z,95799.17
2019-04-05T05:01:32.563Z,95795.42
2019-04-05T05:04:04.373Z,95792.91
2019-04-05T05:06:36.048Z,95790.28
2019-04-05T05:09:08.752Z,95802.20
2019-04-05T05:11:40.404Z,95799.56
2019-04-05T05:14:12.222Z,95794.88
2019-04-05T05:16:43.937Z,95794.42
2019-04-05T05:19:16.188Z,95800.81
2019-04-05T05:21:47.691Z,95795.77
2019-04-05T05:24:19.607Z,95790.70
2019-04-05T05:26:51.468Z,95798.00
2019-04-05T05:29:23.341Z,95796.20
2019-04-05T05:31:55.312Z,95793.73
2019-04-05T05:34:26.954Z,95795.84
2019-04-05T05:36:58.770Z,95803.14
2019-04-05T05:39:30.880Z,95804.45
2019-04-05T05:42:02.661Z,95808.26
2019-04-05T05:44:33.948Z,95806.98
2019-04-05T05:47:05.531Z,95800.48
2019-04-05T05:49:36.941Z,95802.17
2019-04-05T05:52:08.344Z,95803.91
2019-04-05T05:54:40.223Z,95801.29
2019-04-05T05:57:11.411Z,95795.47
2019-04-05T05:59:43.212Z,95803.98
2019-04-05T06:02:14.507Z,95805.67
2019-04-05T06:04:46.038Z,95801.91
2019-04-05T06:07:19.999Z,95798.44
2019-04-05T06:10:13.553Z,95812.06
2019-04-05T06:12:47.741Z,95805.25
2019-04-05T06:15:19.159Z,95814.33
2019-04-05T06:17:50.495Z,95820.55
2019-04-05T06:20:22.206Z,95820.96
2019-04-05T06:22:53.793Z,95814.16
2019-04-05T06:25:26.131Z,95815.05
2019-04-05T06:27:59.800Z,95807.37
2019-04-05T06:30:30.871Z,95812.93
2019-04-05T06:33:02.202Z,95808.66
2019-04-05T06:35:33.562Z,95815.91
2019-04-05T06:38:05.014Z,95814.16
2019-04-05T06:40:40.994Z,95802.70
2019-04-05T06:43:09.867Z,95809.95
2019-04-05T06:45:41.204Z,95811.73
2019-04-05T06:48:19.215Z,95804.09
2019-04-05T06:50:47.294Z,95802.77
2019-04-05T06:53:18.908Z,95797.19
2019-04-05T06:55:50.333Z,95795.49
2019-04-05T06:58:28.952Z,95794.66
2019-04-05T07:00:57.197Z,95792.12
2019-04-05T07:03:29.181Z,95793.95
2019-04-05T07:06:00.450Z,95801.67
2019-04-05T07:08:31.794Z,95794.31
2019-04-05T07:11:03.376Z,95793.90
2019-04-05T07:13:34.759Z,95794.02
2019-04-05T07:16:06.174Z,95799.14
2019-04-05T07:18:37.969Z,95802.60
2019-04-05T07:21:09.300Z,95799.25
2019-04-05T07:23:40.572Z,95803.55
2019-04-05T07:26:11.915Z,95806.10
2019-04-05T07:28:43.158Z,95808.59
2019-04-05T07:31:14.677Z,95807.27
2019-04-05T07:33:45.928Z,95824.37
2019-04-05T07:36:17.192Z,95821.42
2019-04-05T07:38:48.457Z,95823.92
2019-04-05T07:41:20.084Z,95823.14
2019-04-05T07:43:51.326Z,95826.13
2019-04-05T07:46:22.696Z,95829.44
2019-04-05T07:48:54.318Z,95829.86
2019-04-05T07:51:26.023Z,95821.78
2019-04-05T07:53:58.402Z,95823.56
2019-04-05T07:56:29.819Z,95827.42
2019-04-05T07:59:01.087Z,95828.29
2019-04-05T08:01:32.479Z,95828.72
2019-04-05T08:04:06.469Z,95834.27
2019-04-05T08:06:41.901Z,95833.86
2019-04-05T08:09:15.868Z,95833.39
2019-04-05T08:11:48.187Z,95836.83
2019-04-05T08:14:22.812Z,95835.11
2019-04-05T08:16:54.235Z,95836.41
2019-04-05T08:19:25.720Z,95845.80
2019-04-05T08:21:56.981Z,95832.98
2019-04-05T08:24:28.239Z,95841.10
2019-04-05T08:26:59.876Z,95847.91
2019-04-05T08:29:31.293Z,95850.41
2019-04-05T08:32:13.932Z,95851.27
2019-04-05T08:34:37.087Z,95848.68
2019-04-05T08:37:08.443Z,95838.55
2019-04-05T08:39:40.002Z,95828.33
2019-04-05T08:42:11.338Z,95839.86
2019-04-05T08:44:42.990Z,95844.58
2019-04-05T08:47:14.687Z,95844.99
2019-04-05T08:49:46.396Z,95854.81
2019-04-05T08:52:18.186Z,95843.70
2019-04-05T08:54:49.393Z,95840.31
2019-04-05T08:57:20.758Z,95836.03
2019-04-05T08:59:53.440Z,95839.45
2019-04-05T09:02:24.967Z,95832.20
2019-04-05T09:05:03.057Z,95840.73
2019-04-05T09:07:34.421Z,95839.45
2019-04-05T09:10:06.360Z,95836.02
2019-04-05T09:12:37.974Z,95840.73
2019-04-05T09:15:09.583Z,95850.55
2019-04-05T09:17:40.946Z,95845.44
2019-04-05T09:20:12.333Z,95844.98
2019-04-05T09:22:43.686Z,95846.70
2019-04-05T09:25:15.119Z,95846.28
2019-04-05T09:27:46.797Z,95838.59
2019-04-05T09:30:18.625Z,95844.14
2019-04-05T09:32:50.074Z,95843.29
2019-04-05T09:35:21.692Z,95837.30
2019-04-05T09:37:53.020Z,95831.30
2019-04-05T09:40:24.471Z,95834.31
2019-04-05T09:42:56.203Z,95835.59
2019-04-05T09:45:27.453Z,95836.03
2019-04-05T09:47:59.022Z,95832.16
2019-04-05T09:50:30.355Z,95838.59
2019-04-05T09:53:02.203Z,95843.70
2019-04-05T09:55:33.610Z,95833.86
2019-04-05T09:58:05.234Z,95849.23
2019-04-05T10:00:36.570Z,95845.41
2019-04-05T10:03:08.018Z,95847.55
2019-04-05T10:05:39.381Z,95853.10
2019-04-05T10:08:10.822Z,95846.22
2019-04-05T10:10:42.238Z,95850.05
2019-04-05T10:13:14.011Z,95850.03
2019-04-05T10:15:45.428Z,95850.45
2019-04-05T10:18:17.259Z,95843.12
2019-04-05T10:20:48.672Z,95841.78
2019-04-05T10:23:20.069Z,95846.52
2019-04-05T10:25:51.428Z,95841.84
2019-04-05T10:28:22.802Z,95847.02
2019-04-05T10:30:54.140Z,95841.94
2019-04-05T10:33:26.541Z,95832.95
2019-04-05T10:35:57.940Z,95848.38
2019-04-05T10:38:29.278Z,95839.83
2019-04-05T10:41:00.493Z,95847.48
2019-04-05T10:43:31.844Z,95845.38
2019-04-05T10:46:04.222Z,95846.63
2019-04-05T10:48:36.543Z,95845.34
2019-04-05T10:51:07.963Z,95842.80
2019-04-05T10:53:39.302Z,95841.00
2019-04-05T10:56:10.851Z,95830.70
2019-04-05T10:58:42.163Z,95831.98
2019-04-05T11:01:13.579Z,95827.52
2019-04-05T11:03:44.793Z,95827.17
2019-04-05T11:06:16.153Z,95813.83
2019-04-05T11:08:47.499Z,95813.16
2019-04-05T11:11:18.912Z,95806.25
2019-04-05T11:13:50.321Z,95807.98
2019-04-05T11:16:21.759Z,95806.83
2019-04-05T11:18:53.291Z,95799.94
2019-04-05T11:21:25.063Z,95809.19
2019-04-05T11:23:56.402Z,95811.47
2019-04-05T11:26:27.766Z,95799.70
2019-04-05T11:28:59.104Z,95806.61
2019-04-05T11:31:30.829Z,95799.67
2019-04-05T11:34:02.211Z,95800.59
2019-04-05T11:36:34.702Z,95803.95
2019-04-05T11:39:08.582Z,95808.37
2019-04-05T11:41:43.032Z,95809.20
2019-04-05T11:44:14.856Z,95801.39
2019-04-05T11:46:49.154Z,95804.53
2019-04-05T11:49:22.631Z,95802.70
2019-04-05T11:51:54.234Z,95791.36
2019-04-05T11:54:25.892Z,95784.03
2019-04-05T11:56:57.290Z,95784.31
2019-04-05T11:59:28.618Z,95784.47
2019-04-05T12:02:06.714Z,95781.50
2019-04-05T12:04:38.057Z,95776.57
2019-04-05T12:07:09.408Z,95774.95
2019-04-05T12:09:41.018Z,95771.05
2019-04-05T12:12:12.392Z,95773.88
2019-04-05T12:14:44.014Z,95763.57
2019-04-05T12:17:15.312Z,95768.23
2019-04-05T12:19:46.721Z,95774.19
2019-04-05T12:22:19.993Z,95763.87
2019-04-05T12:24:51.169Z,95770.26
2019-04-05T12:27:22.547Z,95767.75
2019-04-05T12:29:54.255Z,95765.59
2019-04-05T12:32:34.587Z,95755.63
2019-04-05T12:35:02.609Z,95759.70
2019-04-05T12:37:33.973Z,95761.48
2019-04-05T12:40:09.632Z,95758.13
2019-04-05T12:42:42.698Z,95753.36
2019-04-05T12:45:15.264Z,95752.19
2019-04-05T12:47:47.060Z,95752.14
2019-04-05T12:50:18.544Z,95758.32
2019-04-05T12:52:50.496Z,95753.31
2019-04-05T12:55:24.000Z,95750.34
2019-04-05T12:57:56.182Z,95754.92
2019-04-05T13:00:28.181Z,95757.27
2019-04-05T13:02:59.488Z,95742.92
2019-04-05T13:05:31.079Z,95741.98
2019-04-05T13:08:02.364Z,95740.27
2019-04-05T13:10:34.100Z,95731.62
2019-04-05T13:13:05.870Z,95740.30
2019-04-05T13:15:39.952Z,95743.31
2019-04-05T13:18:10.824Z,95737.28
2019-04-05T13:20:42.767Z,95739.91
2019-04-05T13:23:14.138Z,95740.92
2019-04-05T13:25:45.423Z,95730.50
2019-04-05T13:28:19.071Z,95727.45
2019-04-05T13:30:50.109Z,95725.56
2019-04-05T13:33:21.655Z,95729.90
2019-04-05T13:35:55.434Z,95733.13
2019-04-05T13:38:26.807Z,95720.23
2019-04-05T13:41:01.234Z,95733.23
2019-04-05T13:43:32.672Z,95724.70
2019-04-05T13:46:04.375Z,95727.72
2019-04-05T13:48:37.636Z,95729.54
2019-04-05T13:51:10.369Z,95730.84
2019-04-05T13:53:42.244Z,95717.77
2019-04-05T13:56:14.745Z,95722.12
2019-04-05T13:58:46.969Z,95720.69
2019-04-05T14:01:20.653Z,95711.88
2019-04-05T14:03:51.766Z,95711.38
2019-04-05T14:06:23.205Z,95713.46
2019-04-05T14:08:54.926Z,95716.84
2019-04-05T14:11:27.385Z,95712.17
2019-04-05T14:13:59.288Z,95712.36
2019-04-05T14:16:30.794Z,95716.18
2019-04-05T14:19:02.322Z,95712.83
2019-04-05T14:21:40.363Z,95719.39
2019-04-05T14:24:06.730Z,95709.72
2019-04-05T14:26:38.087Z,95709.25
2019-04-05T14:29:09.457Z,95714.24
2019-04-05T14:31:40.794Z,95709.59
2019-04-05T14:34:12.104Z,95700.52
2019-04-05T14:36:43.688Z,95701.96
2019-04-05T14:39:15.211Z,95694.53
2019-04-05T14:41:46.524Z,95705.94
2019-04-05T14:44:18.346Z,95698.32
2019-04-05T14:46:49.675Z,95686.02
2019-04-05T14:49:21.388Z,95680.83
2019-04-05T14:51:56.456Z,95676.66
2019-04-05T14:54:26.528Z,95680.93
2019-04-05T14:57:02.450Z,95671.22
2019-04-05T14:59:32.803Z,95666.76
2019-04-05T15:02:04.092Z,95662.72
2019-04-05T15:04:35.529Z,95663.73
2019-04-05T15:07:06.955Z,95660.91
2019-04-05T15:09:38.354Z,95651.36
2019-04-05T15:12:09.783Z,95660.56
2019-04-05T15:14:40.992Z,95660.22
2019-04-05T15:17:12.409Z,95664.66
2019-04-05T15:19:43.942Z,95656.42
2019-04-05T15:22:15.148Z,95658.79
2019-04-05T15:24:47.152Z,95654.81
2019-04-05T15:27:21.340Z,95658.48
2019-04-05T15:29:55.334Z,95660.95
2019-04-05T15:32:26.618Z,95665.43
2019-04-05T15:34:58.960Z,95647.05
2019-04-05T15:37:32.519Z,95656.98
2019-04-05T15:40:04.419Z,95653.39
2019-04-05T15:42:36.025Z,95661.56
2019-04-05T15:45:09.450Z,95657.78
2019-04-05T15:47:41.317Z,95660.53
2019-04-05T15:50:12.856Z,95657.77
2019-04-05T15:52:44.304Z,95652.95
2019-04-05T15:55:16.561Z,95658.73
2019-04-05T15:57:47.896Z,95657.49
2019-04-05T16:00:29.495Z,95650.80
2019-04-05T16:03:02.518Z,95651.22
2019-04-05T16:05:33.886Z,95650.13
2019-04-05T16:08:05.433Z,95661.30
2019-04-05T16:10:36.799Z,95658.41
2019-04-05T16:13:08.374Z,95665.20
2019-04-05T16:15:41.263Z,95664.87
2019-04-05T16:18:12.674Z,95664.73
2019-04-05T16:20:44.077Z,95671.85
2019-04-05T16:23:15.751Z,95674.38
2019-04-05T16:25:47.423Z,95660.82
2019-04-05T16:28:18.925Z,95657.63
2019-04-05T16:30:50.399Z,95655.58
2019-04-05T16:33:21.847Z,95656.69
2019-04-05T16:35:53.327Z,95649.30
2019-04-05T16:38:24.902Z,95665.48
2019-04-05T16:40:56.366Z,95660.80
2019-04-05T16:43:28.035Z,95661.05
2019-04-05T16:45:59.727Z,95663.10
2019-04-05T16:48:31.155Z,95666.31
2019-04-05T16:51:02.756Z,95663.00
2019-04-05T16:53:34.122Z,95665.63
2019-04-05T16:56:05.464Z,95660.77
2019-04-05T16:58:36.914Z,95657.22
2019-04-05T17:01:08.187Z,95659.16
2019-04-05T17:03:39.747Z,95669.30
2019-04-05T17:06:11.096Z,95667.58
2019-04-05T17:08:45.334Z,95664.92
2019-04-05T17:11:15.498Z,95667.77
2019-04-05T17:13:47.082Z,95666.22
2019-04-05T17:16:18.372Z,95667.39
2019-04-05T17:18:49.619Z,95663.68
2019-04-05T17:21:20.942Z,95668.22
2019-04-05T17:23:52.775Z,95658.92
2019-04-05T17:26:24.402Z,95659.19
2019-04-05T17:28:55.792Z,95649.64
2019-04-05T17:31:28.468Z,95662.70
2019-04-05T17:33:59.754Z,95655.83
2019-04-05T17:36:31.208Z,95661.88
2019-04-05T17:39:03.302Z,95667.59
2019-04-05T17:41:35.946Z,95672.21
2019-04-05T17:44:11.165Z,95671.66
2019-04-05T17:46:40.494Z,95675.39
2019-04-05T17:49:12.351Z,95674.77
2019-04-05T17:51:43.696Z,95675.84
2019-04-05T17:54:15.121Z,95681.59
2019-04-05T17:56:46.857Z,95680.03
2019-04-05T17:59:20.160Z,95678.87
2019-04-05T18:01:51.582Z,95682.80
2019-04-05T18:04:23.229Z,95688.86
2019-04-05T18:06:54.592Z,95688.02
2019-04-05T18:09:27.402Z,95691.06
2019-04-05T18:11:58.820Z,95689.78
2019-04-05T18:14:30.934Z,95693.15
2019-04-05T18:17:02.114Z,95700.88
2019-04-05T18:19:33.412Z,95697.01
2019-04-05T18:22:04.932Z,95699.23
2019-04-05T18:24:36.588Z,95699.30
2019-04-05T18:27:08.123Z,95698.95
2019-04-05T18:29:39.403Z,95703.54
2019-04-05T18:32:11.035Z,95701.32
2019-04-05T18:34:42.563Z,95705.98
2019-04-05T18:37:13.758Z,95703.41
2019-04-05T18:39:45.025Z,95702.95
2019-04-05T18:42:16.377Z,95706.42
2019-04-05T18:44:47.702Z,95708.25
2019-04-05T18:47:19.592Z,95712.58
2019-04-05T18:50:02.483Z,95719.46
2019-04-05T18:52:24.209Z,95723.34
2019-04-05T18:54:55.608Z,95723.44
2019-04-05T18:57:26.811Z,95722.63
2019-04-05T18:59:58.157Z,95729.94
2019-04-05T19:02:29.506Z,95734.68
2019-04-05T19:05:00.906Z,95727.44
2019-04-05T19:07:32.667Z,95734.30
2019-04-05T19:10:04.242Z,95741.55
2019-04-05T19:12:35.603Z,95738.97
2019-04-05T19:15:07.368Z,95742.80
2019-04-05T19:17:38.819Z,95737.16
2019-04-05T19:20:10.579Z,95737.48
2019-04-05T19:22:41.854Z,95737.36
2019-04-05T19:25:13.597Z,95742.36
2019-04-05T19:27:44.800Z,95742.75
2019-04-05T19:50:41.801Z,95752.39
2019-04-05T19:53:14.055Z,95760.53
2019-04-05T19:55:45.468Z,95763.52
2019-04-05T19:58:17.444Z,95755.77
2019-04-05T20:00:48.880Z,95752.70
2019-04-05T20:03:20.083Z,95748.41
2019-04-05T20:05:51.995Z,95746.31
2019-04-05T20:08:23.681Z,95755.73
2019-04-05T20:10:55.109Z,95755.73
2019-04-05T20:13:26.550Z,95754.86
2019-04-05T20:15:57.788Z,95756.58
2019-04-05T20:18:29.117Z,95758.22
2019-04-05T20:21:00.481Z,95751.41
2019-04-05T20:23:31.672Z,95757.38
2019-04-05T20:26:03.291Z,95760.80
2019-04-05T20:28:34.661Z,95754.70
2019-04-05T20:33:33.661Z,95754.98
2019-04-05T20:36:05.244Z,95763.13
2019-04-05T20:38:36.498Z,95766.98
2019-04-05T20:41:07.845Z,95759.72
2019-04-05T20:43:39.241Z,95768.33
2019-04-05T20:46:10.811Z,95762.78
2019-04-05T20:48:42.007Z,95762.35
2019-04-05T20:51:13.365Z,95758.92
2019-04-05T20:53:44.566Z,95763.20
2019-04-05T20:56:15.930Z,95758.09
2019-04-05T20:58:47.216Z,95758.02
2019-04-05T21:01:18.841Z,95749.51
2019-04-05T21:03:50.291Z,95747.44
2019-04-05T21:06:21.617Z,95747.82
2019-04-05T21:08:52.838Z,95755.14
2019-04-05T21:11:24.197Z,95764.58
2019-04-05T21:13:55.804Z,95755.55
2019-04-05T21:16:27.006Z,95762.46
2019-04-05T21:18:58.423Z,95767.52
2019-04-05T21:21:30.462Z,95761.05
2019-04-05T21:24:02.707Z,95765.73
2019-04-05T21:26:34.227Z,95763.16
2019-04-05T21:29:05.717Z,95766.59
2019-04-05T21:31:37.264Z,95767.02
2019-04-05T21:34:11.367Z,95767.47
2019-04-05T21:36:43.324Z,95761.08
2019-04-05T21:39:14.909Z,95770.09
2019-04-05T21:41:46.292Z,95769.23
2019-04-05T21:44:18.952Z,95777.35
2019-04-05T21:46:50.730Z,95776.94
2019-04-05T21:49:22.006Z,95778.64
2019-04-05T21:51:53.307Z,95781.70
2019-04-05T21:54:24.839Z,95783.46
2019-04-05T21:56:56.553Z,95788.60
2019-04-05T21:59:27.920Z,95787.70
2019-04-05T22:01:59.593Z,95779.54
2019-04-05T22:04:30.874Z,95785.03
2019-04-05T22:07:02.231Z,95786.41
2019-04-05T22:09:33.491Z,95777.85
2019-04-05T22:12:05.541Z,95776.11
2019-04-05T22:14:36.857Z,95780.38
2019-04-05T22:17:08.234Z,95782.12
2019-04-05T22:19:39.690Z,95779.11
2019-04-05T22:22:11.162Z,95784.23
2019-04-05T22:24:42.506Z,95779.92
2019-04-05T22:27:14.751Z,95779.97
2019-04-05T22:29:46.330Z,95783.38
2019-04-05T22:32:17.624Z,95786.85
2019-04-05T22:34:48.963Z,95789.00
2019-04-05T22:37:20.330Z,95782.56
2019-04-05T22:39:52.041Z,95791.14
2019-04-05T22:42:23.417Z,95788.17
2019-04-05T22:44:54.701Z,95789.02
2019-04-05T22:47:26.051Z,95785.16
2019-04-05T22:49:57.219Z,95787.78
2019-04-05T22:52:29.101Z,95794.59
2019-04-05T22:55:10.422Z,95799.35
2019-04-05T22:57:33.556Z,95799.35
2019-04-05T23:00:05.832Z,95791.19
2019-04-05T23:02:38.843Z,95793.77
2019-04-05T23:05:10.634Z,95786.87
2019-04-05T23:07:42.047Z,95788.11
2019-04-05T23:10:13.641Z,95790.28
2019-04-05T23:12:45.311Z,95792.91
2019-04-05T23:15:16.711Z,95797.17
2019-04-05T23:17:48.097Z,95792.52
2019-04-05T23:20:19.485Z,95788.62
2019-04-05T23:22:51.153Z,95802.37
2019-04-05T23:25:22.564Z,95801.11
2019-04-05T23:27:53.777Z,95795.55
2019-04-05T23:30:26.449Z,95799.84
2019-04-05T23:32:58.107Z,95801.09
2019-04-05T23:35:29.482Z,95805.81
2019-04-05T23:38:00.766Z,95798.98
2019-04-05T23:40:32.179Z,95803.69
2019-04-05T23:43:04.595Z,95804.95
2019-04-05T23:45:36.305Z,95807.98
2019-04-05T23:48:07.583Z,95806.28
2019-04-05T23:50:38.774Z,95807.98
2019-04-05T23:53:10.708Z,95810.53
2019-04-05T23:55:41.995Z,95806.28
2019-04-05T23:58:13.598Z,95796.91
